Time;durP1;ratioP1;P1;durP2;ratioP2;P2;SDS_P1;SDS_P2;PMS_P1;PMS_P2;Temp;Humidity;BMP_temperature;BMP_pressure;BME280_temperature;BME280_humidity;BME280_pressure;Samples;Min_cycle;Max_cycle;Signal;HPM_P1;HPM_P2
2021/12/01 00:00:52;;;;;;;;;;;;;;;;;;5097002;28;20387;-75
2021/12/01 00:03:18;;;;;;;;;;;;;;;;;;5096953;28;19920;-77
2021/12/01 00:05:43;;;;;;;;;;;;;;;;;;5097000;28;19923;-77
2021/12/01 00:08:09;;;;;;;;;;;;;;;;;;5078855;28;19959;-84
2021/12/01 00:10:35;;;;;;;;;;;;;;;;;;5096794;28;19958;-83
2021/12/01 00:13:05;;;;;;;;;;;;;;;;;;5096752;28;19920;-80
2021/12/01 00:15:30;;;;;;;;;;;;;;;;;;5097446;28;19928;-76
2021/12/01 00:17:56;;;;;;;;;;;;;;;;;;5080119;28;19924;-79
2021/12/01 00:20:22;;;;;;;;;;;;;;;;;;5099169;28;19920;-75
2021/12/01 00:22:48;;;;;;;;;;;;;;;;;;5097508;28;20007;-80
2021/12/01 00:25:15;;;;;;;;;;;;;;;;;;5096559;28;19916;-82
2021/12/01 00:27:42;;;;;;;;;;;;;;;;;;5096557;28;19939;-79
2021/12/01 00:30:09;;;;;;;;;;;;;;;;;;5096440;28;20423;-82
2021/12/01 00:32:34;;;;;;;;;;;;;;;;;;5096613;28;19916;-83
2021/12/01 00:35:01;;;;;;;;;;;;;;;;;;5096423;28;20394;-73
2021/12/01 00:37:27;;;;;;;;;;;;;;;;;;5078182;28;19920;-81
2021/12/01 00:39:52;;;;;;;;;;;;;;;;;;5096601;28;19927;-78
2021/12/01 00:42:20;;;;;;;;;;;;;;;;;;5096261;28;19920;-75
2021/12/01 00:44:47;;;;;;;;;;;;;;;;;;5096249;28;19920;-78
2021/12/01 00:47:14;;;;;;;;;;;;;;;;;;5096064;28;20405;-80
2021/12/01 00:49:41;;;;;;;;;;;;;;;;;;5096374;28;19916;-77
2021/12/01 00:52:07;;;;;;;;;;;;;;;;;;5096011;28;19920;-76
2021/12/01 00:54:33;;;;;;;;;;;;;;;;;;5096302;28;19916;-80
2021/12/01 00:56:58;;;;;;;;;;;;;;;;;;5095987;28;20286;-86
2021/12/01 00:59:24;;;;;;;;;;;;;;;;;;5094827;28;20287;-75
2021/12/01 01:01:50;;;;;;;;;;;;;;;;;;5095916;28;19916;-80
2021/12/01 01:04:15;;;;;;;;;;;;;;;;;;5095784;28;20302;-78
2021/12/01 01:06:42;;;;;;;;;;;;;;;;;;5077686;28;19924;-78
2021/12/01 01:09:08;;;;;;;;;;;;;;;;;;5095788;28;19998;-74
2021/12/01 01:17:06;;;;;;;;;;;;;;;;;;5095504;28;20413;-76
2021/12/01 01:19:32;;;;;;;;;;;;;;;;;;5095488;28;19924;-75
2021/12/01 01:21:59;;;;;;;;;;;;;;;;;;5095535;28;19920;-74
2021/12/01 01:24:24;;;;;;;;;;;;;;;;;;5095474;28;19916;-76
2021/12/01 01:26:50;;;;;;;;;;;;;;;;;;5095292;28;19920;-77
2021/12/01 01:29:20;;;;;;;;;;;;;;;;;;5095382;28;19920;-80
2021/12/01 01:31:46;;;;;;;;;;;;;;;;;;5095264;28;19920;-76
2021/12/01 01:34:11;;;;;;;;;;;;;;;;;;5095201;28;19922;-75
2021/12/01 01:36:37;;;;;;;;;;;;;;;;;;5095192;28;19920;-78
2021/12/01 01:39:04;;;;;;;;;;;;;;;;;;5095453;28;19916;-79
2021/12/01 01:41:30;;;;;;;;;;;;;;;;;;5095092;28;19924;-75
2021/12/01 01:43:56;;;;;;;;;;;;;;;;;;5095112;28;20326;-76
2021/12/01 01:46:21;;;;;;;;;;;;;;;;;;5076881;28;19924;-76
2021/12/01 01:48:54;;;;;;;;;;;;;;;;;;5095053;28;19931;-78
2021/12/01 01:51:21;;;;;;;;;;;;;;;;;;5094965;28;19962;-77
2021/12/01 01:53:48;;;;;;;;;;;;;;;;;;5094761;28;19920;-79
2021/12/01 01:56:14;;;;;;;;;;;;;;;;;;5094854;28;20458;-75
2021/12/01 01:58:39;;;;;;;;;;;;;;;;;;5094831;28;19973;-76
2021/12/01 02:03:57;;;;;;;;;;;;;;;;;;5095018;28;19931;-76
2021/12/01 02:06:23;;;;;;;;;;;;;;;;;;5076434;28;19920;-77
2021/12/01 02:08:53;;;;;;;;;;;;;;;;;;5094586;28;20275;-74
2021/12/01 02:11:19;;;;;;;;;;;;;;;;;;5094594;28;20287;-75
2021/12/01 02:13:45;;;;;;;;;;;;;;;;;;5094461;28;19916;-77
2021/12/01 02:16:11;;;;;;;;;;;;;;;;;;5094299;28;20452;-78
2021/12/01 02:18:37;;;;;;;;;;;;;;;;;;5094790;28;20002;-80
2021/12/01 02:21:13;;;;;;;;;;;;;;;;;;5094397;28;19916;-77
2021/12/01 02:23:47;;;;;;;;;;;;;;;;;;5094264;28;19916;-81
2021/12/01 02:26:13;;;;;;;;;;;;;;;;;;5094289;28;20383;-79
2021/12/01 02:28:42;;;;;;;;;;;;;;;;;;5093435;28;20205;-74
2021/12/01 02:31:07;;;;;;;;;;;;;;;;;;5094153;28;19926;-81
2021/12/01 02:33:32;;;;;;;;;;;;;;;;;;5094029;28;20432;-77
2021/12/01 02:35:58;;;;;;;;;;;;;;;;;;5094106;28;19930;-82
2021/12/01 02:38:24;;;;;;;;;;;;;;;;;;5094047;28;20287;-77
2021/12/01 02:40:50;;;;;;;;;;;;;;;;;;5094016;28;20436;-78
2021/12/01 02:43:16;;;;;;;;;;;;;;;;;;5093982;28;19951;-79
2021/12/01 02:45:42;;;;;;;;;;;;;;;;;;5093961;28;20334;-75
2021/12/01 02:48:13;;;;;;;;;;;;;;;;;;5093843;28;19920;-74
2021/12/01 02:50:42;;;;;;;;;;;;;;;;;;5093849;28;19916;-74
2021/12/01 02:53:08;;;;;;;;;;;;;;;;;;5093645;28;20014;-75
2021/12/01 02:55:35;;;;;;;;;;;;;;;;;;5093849;28;19952;-77
2021/12/01 02:58:01;;;;;;;;;;;;;;;;;;5093725;28;19943;-81
2021/12/01 03:00:26;;;;;;;;;;;;;;;;;;5093695;28;19966;-79
2021/12/01 03:02:53;;;;;;;;;;;;;;;;;;5093574;28;19919;-75
2021/12/01 03:05:19;;;;;;;;;;;;;;;;;;5093498;28;19923;-75
2021/12/01 03:07:45;;;;;;;;;;;;;;;;;;5093805;28;19916;-76
2021/12/01 03:10:12;;;;;;;;;;;;;;;;;;5093583;28;19916;-75
2021/12/01 03:12:38;;;;;;;;;;;;;;;;;;5093338;28;19924;-77
2021/12/01 03:15:05;;;;;;;;;;;;;;;;;;5093469;28;19916;-79
2021/12/01 03:17:31;;;;;;;;;;;;;;;;;;5093185;28;19927;-77
2021/12/01 03:19:57;;;;;;;;;;;;;;;;;;5093390;28;19916;-77
2021/12/01 03:22:23;;;;;;;;;;;;;;;;;;5092845;28;19948;-75
2021/12/01 03:24:48;;;;;;;;;;;;;;;;;;5093345;28;19927;-76
2021/12/01 03:27:14;;;;;;;;;;;;;;;;;;5093349;28;19916;-78
2021/12/01 03:29:40;;;;;;;;;;;;;;;;;;5093354;28;19918;-75
2021/12/01 03:32:07;;;;;;;;;;;;;;;;;;5093478;28;20014;-75
2021/12/01 03:34:34;;;;;;;;;;;;;;;;;;5093200;28;19929;-75
2021/12/01 03:37:00;;;;;;;;;;;;;;;;;;5075115;28;19917;-77
2021/12/01 03:39:25;;;;;;;;;;;;;;;;;;5093178;28;19923;-76
2021/12/01 03:41:51;;;;;;;;;;;;;;;;;;5074973;28;19923;-81
2021/12/01 03:44:16;;;;;;;;;;;;;;;;;;5093400;28;19923;-75
2021/12/01 03:46:42;;;;;;;;;;;;;;;;;;5093116;28;20367;-75
2021/12/01 03:49:08;;;;;;;;;;;;;;;;;;5093017;28;19916;-74
2021/12/01 03:51:33;;;;;;;;;;;;;;;;;;5093095;28;20388;-75
2021/12/01 03:53:59;;;;;;;;;;;;;;;;;;5074753;28;19916;-78
2021/12/01 03:56:24;;;;;;;;;;;;;;;;;;5093101;28;19920;-83
2021/12/01 03:58:50;;;;;;;;;;;;;;;;;;5093075;28;20298;-79
2021/12/01 04:01:15;;;;;;;;;;;;;;;;;;5092977;28;20375;-78
2021/12/01 04:03:41;;;;;;;;;;;;;;;;;;5074912;28;19919;-77
2021/12/01 04:06:07;;;;;;;;;;;;;;;;;;5093055;28;19916;-80
2021/12/01 04:08:33;;;;;;;;;;;;;;;;;;5093005;28;19916;-78
2021/12/01 04:10:59;;;;;;;;;;;;;;;;;;5074704;28;19942;-76
2021/12/01 04:13:24;;;;;;;;;;;;;;;;;;5092795;28;19916;-80
2021/12/01 04:15:50;;;;;;;;;;;;;;;;;;5092820;28;19974;-81
2021/12/01 04:18:15;;;;;;;;;;;;;;;;;;5092735;28;19920;-75
2021/12/01 04:20:41;;;;;;;;;;;;;;;;;;5093084;28;20271;-78
2021/12/01 04:23:07;;;;;;;;;;;;;;;;;;5092805;28;19931;-80
2021/12/01 04:25:32;;;;;;;;;;;;;;;;;;5092772;28;20361;-77
2021/12/01 04:27:58;;;;;;;;;;;;;;;;;;5074612;28;19920;-75
2021/12/01 04:30:25;;;;;;;;;;;;;;;;;;5074634;28;19916;-76
2021/12/01 04:32:51;;;;;;;;;;;;;;;;;;5092613;28;19916;-84
2021/12/01 04:35:18;;;;;;;;;;;;;;;;;;5096241;28;20398;-78
2021/12/01 04:37:44;;;;;;;;;;;;;;;;;;5096367;28;19959;-75
2021/12/01 04:40:10;;;;;;;;;;;;;;;;;;5078138;28;19924;-75
2021/12/01 04:42:36;;;;;;;;;;;;;;;;;;5096232;28;19923;-78
2021/12/01 04:45:02;;;;;;;;;;;;;;;;;;5096464;28;19916;-77
2021/12/01 04:47:30;;;;;;;;;;;;;;;;;;5096223;28;19973;-84
2021/12/01 04:49:56;;;;;;;;;;;;;;;;;;5096188;28;19942;-81
2021/12/01 04:52:21;;;;;;;;;;;;;;;;;;5096094;28;19916;-84
2021/12/01 04:54:47;;;;;;;;;;;;;;;;;;5095956;28;19920;-79
2021/12/01 04:57:13;;;;;;;;;;;;;;;;;;5096000;28;19922;-79
2021/12/01 04:59:38;;;;;;;;;;;;;;;;;;5095984;28;20007;-80
2021/12/01 05:02:04;;;;;;;;;;;;;;;;;;5095820;28;20395;-76
2021/12/01 05:04:30;;;;;;;;;;;;;;;;;;5096802;28;19928;-93
2021/12/01 05:06:55;;;;;;;;;;;;;;;;;;5098387;28;19916;-75
2021/12/01 05:09:21;;;;;;;;;;;;;;;;;;5095651;28;20011;-78
2021/12/01 05:11:46;;;;;;;;;;;;;;;;;;5096054;28;20209;-74
2021/12/01 05:14:12;;;;;;;;;;;;;;;;;;5095722;28;20386;-78
2021/12/01 05:16:39;;;;;;;;;;;;;;;;;;5095432;28;19942;-75
2021/12/01 05:19:08;;;;;;;;;;;;;;;;;;5094483;28;20383;-74
2021/12/01 05:21:33;;;;;;;;;;;;;;;;;;5095995;28;19919;-75
2021/12/01 05:24:00;;;;;;;;;;;;;;;;;;5077561;28;19916;-77
2021/12/01 05:26:25;;;;;;;;;;;;;;;;;;5095431;28;19919;-77
2021/12/01 05:28:51;;;;;;;;;;;;;;;;;;5073908;28;19920;-79
2021/12/01 05:31:16;;;;;;;;;;;;;;;;;;5057542;28;20456;-76
2021/12/01 05:33:42;;;;;;;;;;;;;;;;;;5075023;28;19920;-78
2021/12/01 05:36:08;;;;;;;;;;;;;;;;;;5075018;28;19924;-75
2021/12/01 05:38:33;;;;;;;;;;;;;;;;;;5104576;28;20492;-76
2021/12/01 05:40:59;;;;;;;;;;;;;;;;;;5094322;28;19922;-76
2021/12/01 05:43:25;;;;;;;;;;;;;;;;;;5107865;27;19924;-76
2021/12/01 05:45:51;;;;;;;;;;;;;;;;;;5073633;28;19970;-76
2021/12/01 05:48:16;;;;;;;;;;;;;;;;;;5083611;28;19920;-85
2021/12/01 05:50:42;;;;;;;;;;;;;;;;;;5094949;28;20321;-81
2021/12/01 05:53:09;;;;;;;;;;;;;;;;;;5094880;28;19944;-87
2021/12/01 05:55:35;;;;;;;;;;;;;;;;;;5095156;28;20375;-92
2021/12/01 05:58:00;;;;;;;;;;;;;;;;;;5077091;28;19919;-87
2021/12/01 06:00:26;;;;;;;;;;;;;;;;;;5095002;28;19923;-85
2021/12/01 06:02:52;;;;;;;;;;;;;;;;;;5094986;28;20432;-85
2021/12/01 06:05:18;;;;;;;;;;;;;;;;;;5089127;28;19925;-93
2021/12/01 06:07:44;;;;;;;;;;;;;;;;;;5087962;28;20009;-84
2021/12/01 06:10:09;;;;;;;;;;;;;;;;;;5093842;28;19956;-88
2021/12/01 06:12:35;;;;;;;;;;;;;;;;;;5074329;28;19916;-77
2021/12/01 06:15:01;;;;;;;;;;;;;;;;;;5074164;28;19916;-76
2021/12/01 06:17:26;;;;;;;;;;;;;;;;;;5074248;28;19920;-78
2021/12/01 06:19:53;;;;;;;;;;;;;;;;;;5101905;28;19917;-77
2021/12/01 06:22:18;;;;;;;;;;;;;;;;;;5109129;28;19918;-82
2021/12/01 06:24:44;;;;;;;;;;;;;;;;;;5119496;28;19979;-86
2021/12/01 06:27:11;;;;;;;;;;;;;;;;;;5116459;28;20757;-81
2021/12/01 06:29:36;;;;;;;;;;;;;;;;;;5077158;28;20355;-78
2021/12/01 06:32:02;;;;;;;;;;;;;;;;;;5094036;28;19959;-77
2021/12/01 06:34:28;;;;;;;;;;;;;;;;;;5076115;28;20002;-78
2021/12/01 06:36:53;;;;;;;;;;;;;;;;;;5094042;28;19924;-78
2021/12/01 06:39:19;;;;;;;;;;;;;;;;;;5093940;28;19916;-78
2021/12/01 06:41:44;;;;;;;;;;;;;;;;;;5075840;28;19937;-76
2021/12/01 06:44:09;;;;;;;;;;;;;;;;;;5086457;28;20021;-85
2021/12/01 06:46:35;;;;;;;;;;;;;;;;;;5094442;28;20367;-77
2021/12/01 06:49:00;;;;;;;;;;;;;;;;;;5075769;28;19999;-76
2021/12/01 06:51:26;;;;;;;;;;;;;;;;;;5098463;28;20338;-88
2021/12/01 06:53:51;;;;;;;;;;;;;;;;;;5092423;28;19930;-76
2021/12/01 06:56:19;;;;;;;;;;;;;;;;;;5093215;28;19958;-80
2021/12/01 06:58:45;;;;;;;;;;;;;;;;;;5095690;28;19977;-89
2021/12/01 07:01:10;;;;;;;;;;;;;;;;;;5084900;28;19973;-75
2021/12/01 07:03:36;;;;;;;;;;;;;;;;;;5071999;28;19924;-85
2021/12/01 07:06:02;;;;;;;;;;;;;;;;;;5078956;28;19916;-88
2021/12/01 07:08:27;;;;;;;;;;;;;;;;;;5116825;28;19919;-78
2021/12/01 07:10:53;;;;;;;;;;;;;;;;;;5117145;28;19983;-87
2021/12/01 07:13:18;;;;;;;;;;;;;;;;;;5116802;28;19916;-78
2021/12/01 07:15:44;;;;;;;;;;;;;;;;;;5115629;28;20029;-80
2021/12/01 07:18:09;;;;;;;;;;;;;;;;;;5114244;28;19960;-79
2021/12/01 07:20:35;;;;;;;;;;;;;;;;;;5080988;28;19974;-76
2021/12/01 07:23:02;;;;;;;;;;;;;;;;;;5083058;28;19962;-75
2021/12/01 07:25:28;;;;;;;;;;;;;;;;;;5077352;28;20016;-74
2021/12/01 07:27:53;;;;;;;;;;;;;;;;;;5114201;28;19935;-80
2021/12/01 07:30:19;;;;;;;;;;;;;;;;;;5125435;28;19928;-74
2021/12/01 07:32:44;;;;;;;;;;;;;;;;;;5072544;28;19958;-74
2021/12/01 07:35:13;;;;;;;;;;;;;;;;;;5093387;28;19920;-74
2021/12/01 07:37:38;;;;;;;;;;;;;;;;;;5101621;28;20081;-74
2021/12/01 07:40:04;;;;;;;;;;;;;;;;;;5095227;28;19920;-77
2021/12/01 07:42:30;;;;;;;;;;;;;;;;;;5097699;28;19927;-95
2021/12/01 07:44:55;;;;;;;;;;;;;;;;;;5101577;28;19959;-83
2021/12/01 07:47:21;;;;;;;;;;;;;;;;;;5105073;28;19927;-94
2021/12/01 07:49:46;;;;;;;;;;;;;;;;;;5108132;28;19924;-87
2021/12/01 07:52:12;;;;;;;;;;;;;;;;;;5108730;28;19916;-91
2021/12/01 07:54:39;;;;;;;;;;;;;;;;;;5093065;28;19920;-87
2021/12/01 07:57:05;;;;;;;;;;;;;;;;;;5092959;28;19923;-87
2021/12/01 07:59:30;;;;;;;;;;;;;;;;;;5093011;28;19922;-89
2021/12/01 08:01:56;;;;;;;;;;;;;;;;;;5093127;28;20345;-84
2021/12/01 08:04:21;;;;;;;;;;;;;;;;;;5076501;28;19920;-91
2021/12/01 08:06:47;;;;;;;;;;;;;;;;;;5075048;28;19931;-89
2021/12/01 08:09:12;;;;;;;;;;;;;;;;;;5095302;28;19965;-89
2021/12/01 08:11:38;;;;;;;;;;;;;;;;;;5097138;28;20371;-88
2021/12/01 08:14:06;;;;;;;;;;;;;;;;;;5085430;28;19928;-85
2021/12/01 08:16:31;;;;;;;;;;;;;;;;;;5080770;28;20384;-76
2021/12/01 08:18:57;;;;;;;;;;;;;;;;;;5088682;28;19931;-89
2021/12/01 08:21:23;;;;;;;;;;;;;;;;;;5082655;28;19916;-75
2021/12/01 08:23:49;;;;;;;;;;;;;;;;;;5087691;28;20337;-93
2021/12/01 08:26:14;;;;;;;;;;;;;;;;;;5083754;28;19970;-93
2021/12/01 08:28:42;;;;;;;;;;;;;;;;;;5067218;28;19916;-76
2021/12/01 08:31:08;;;;;;;;;;;;;;;;;;5094987;28;19928;-92
2021/12/01 08:33:33;;;;;;;;;;;;;;;;;;5103173;28;19923;-76
2021/12/01 08:35:59;;;;;;;;;;;;;;;;;;5098642;28;19920;-84
2021/12/01 08:38:24;;;;;;;;;;;;;;;;;;5098864;28;20029;-86
2021/12/01 08:40:49;;;;;;;;;;;;;;;;;;5116964;28;19980;-76
2021/12/01 08:43:15;;;;;;;;;;;;;;;;;;5116796;28;20014;-80
2021/12/01 08:45:40;;;;;;;;;;;;;;;;;;5117348;28;20268;-83
2021/12/01 08:48:06;;;;;;;;;;;;;;;;;;5099917;28;20006;-91
2021/12/01 08:50:32;;;;;;;;;;;;;;;;;;5089863;28;19921;-89
2021/12/01 08:52:58;;;;;;;;;;;;;;;;;;5093739;28;19923;-85
2021/12/01 08:55:24;;;;;;;;;;;;;;;;;;5095404;28;20049;-76
2021/12/01 08:57:50;;;;;;;;;;;;;;;;;;5092949;28;20387;-76
2021/12/01 09:00:17;;;;;;;;;;;;;;;;;;5088508;28;19916;-91
2021/12/01 09:02:43;;;;;;;;;;;;;;;;;;5117715;28;19915;-89
2021/12/01 09:05:08;;;;;;;;;;;;;;;;;;5117133;28;20052;-76
2021/12/01 09:07:34;;;;;;;;;;;;;;;;;;5093585;28;19920;-83
2021/12/01 09:09:59;;;;;;;;;;;;;;;;;;5095806;28;19916;-76
2021/12/01 09:12:25;;;;;;;;;;;;;;;;;;5095835;28;20423;-76
2021/12/01 09:14:52;;;;;;;;;;;;;;;;;;5095840;28;20321;-81
2021/12/01 09:17:17;;;;;;;;;;;;;;;;;;5095910;28;20019;-76
2021/12/01 09:19:43;;;;;;;;;;;;;;;;;;5077343;28;20360;-80
2021/12/01 09:22:08;;;;;;;;;;;;;;;;;;5096716;28;19951;-83
2021/12/01 09:24:34;;;;;;;;;;;;;;;;;;5096803;28;20025;-91
2021/12/01 09:27:00;;;;;;;;;;;;;;;;;;5095733;28;19916;-78
2021/12/01 09:29:27;;;;;;;;;;;;;;;;;;5095469;28;19923;-76
2021/12/01 09:31:54;;;;;;;;;;;;;;;;;;5095401;28;19923;-76
2021/12/01 09:34:19;;;;;;;;;;;;;;;;;;5093878;28;19931;-76
2021/12/01 09:36:44;;;;;;;;;;;;;;;;;;5097342;28;20324;-76
2021/12/01 09:39:10;;;;;;;;;;;;;;;;;;5115655;28;19923;-76
2021/12/01 09:41:36;;;;;;;;;;;;;;;;;;5115609;28;20010;-76
2021/12/01 09:44:02;;;;;;;;;;;;;;;;;;5115664;28;20282;-80
2021/12/01 09:46:30;;;;;;;;;;;;;;;;;;5116502;28;19920;-93
2021/12/01 09:48:55;;;;;;;;;;;;;;;;;;5098412;28;20015;-77
2021/12/01 09:51:21;;;;;;;;;;;;;;;;;;5115907;28;20366;-78
2021/12/01 09:53:47;;;;;;;;;;;;;;;;;;5110418;28;19931;-77
2021/12/01 09:56:12;;;;;;;;;;;;;;;;;;5099778;28;19915;-79
2021/12/01 09:58:38;;;;;;;;;;;;;;;;;;5115887;28;19930;-89
2021/12/01 10:01:06;;;;;;;;;;;;;;;;;;5115850;28;19955;-76
2021/12/01 10:03:32;;;;;;;;;;;;;;;;;;5115326;28;20281;-77
2021/12/01 10:06:02;;;;;;;;;;;;;;;;;;5097049;28;19927;-76
2021/12/01 10:08:32;;;;;;;;;;;;;;;;;;5115798;28;19920;-92
2021/12/01 10:10:58;;;;;;;;;;;;;;;;;;5093635;28;19973;-92
2021/12/01 10:13:25;;;;;;;;;;;;;;;;;;5115685;28;19955;-90
2021/12/01 10:15:52;;;;;;;;;;;;;;;;;;5113975;28;20530;-91
2021/12/01 10:18:18;;;;;;;;;;;;;;;;;;5087150;28;20012;-79
2021/12/01 10:20:55;;;;;;;;;;;;;;;;;;5060509;28;20020;-89
2021/12/01 10:23:20;;;;;;;;;;;;;;;;;;5066357;28;19916;-86
2021/12/01 10:25:46;;;;;;;;;;;;;;;;;;5056293;28;19927;-90
2021/12/01 10:28:30;;;;;;;;;;;;;;;;;;5056798;28;19964;-94
2021/12/01 10:30:56;;;;;;;;;;;;;;;;;;5063529;28;19927;-77
2021/12/01 10:33:21;;;;;;;;;;;;;;;;;;5064271;28;19980;-77
2021/12/01 10:35:46;;;;;;;;;;;;;;;;;;5069878;28;19929;-76
2021/12/01 10:38:13;;;;;;;;;;;;;;;;;;5076099;28;19924;-89
2021/12/01 10:40:39;;;;;;;;;;;;;;;;;;5068701;28;19967;-87
2021/12/01 10:43:06;;;;;;;;;;;;;;;;;;5064747;28;19921;-86
2021/12/01 10:45:33;;;;;;;;;;;;;;;;;;5055097;28;19920;-76
2021/12/01 10:48:00;;;;;;;;;;;;;;;;;;5053658;28;19977;-84
2021/12/01 10:50:26;;;;;;;;;;;;;;;;;;5055674;28;19917;-78
2021/12/01 10:52:54;;;;;;;;;;;;;;;;;;5073514;28;19917;-79
2021/12/01 10:55:21;;;;;;;;;;;;;;;;;;5073472;28;19966;-79
2021/12/01 10:57:49;;;;;;;;;;;;;;;;;;5055774;28;19924;-76
2021/12/01 11:00:21;;;;;;;;;;;;;;;;;;5073578;28;19974;-80
2021/12/01 11:02:47;;;;;;;;;;;;;;;;;;5073657;28;20279;-91
2021/12/01 11:05:25;;;;;;;;;;;;;;;;;;5073557;28;19923;-88
2021/12/01 11:07:50;;;;;;;;;;;;;;;;;;5055956;28;20371;-77
2021/12/01 11:10:18;;;;;;;;;;;;;;;;;;5073310;28;19923;-82
2021/12/01 11:12:53;;;;;;;;;;;;;;;;;;5055908;28;19923;-76
2021/12/01 11:15:23;;;;;;;;;;;;;;;;;;5073344;28;19916;-76
2021/12/01 11:17:49;;;;;;;;;;;;;;;;;;5079187;28;19925;-76
2021/12/01 11:20:33;;;;;;;;;;;;;;;;;;5079740;28;19925;-76
2021/12/01 11:23:08;;;;;;;;;;;;;;;;;;5081545;28;19926;-76
2021/12/01 11:25:36;;;;;;;;;;;;;;;;;;5077396;28;19928;-78
2021/12/01 11:28:02;;;;;;;;;;;;;;;;;;5081894;28;20408;-91
2021/12/01 16:31:48;;;;;;;;;;;;;;;;;;5090826;27;19920;-88
2021/12/01 16:34:14;;;;;;;;;;;;;;;;;;5092329;28;19921;-80
2021/12/01 16:36:39;;;;;;;;;;;;;;;;;;5124990;28;19946;-81
2021/12/01 16:39:06;;;;;;;;;;;;;;;;;;5091647;28;19932;-86
2021/12/01 16:41:32;;;;;;;;;;;;;;;;;;5091566;28;20441;-85
2021/12/01 16:44:01;;;;;;;;;;;;;;;;;;5090546;28;19970;-78
2021/12/01 16:46:29;;;;;;;;;;;;;;;;;;5089310;28;20423;-78
2021/12/01 16:48:55;;;;;;;;;;;;;;;;;;5089239;28;19916;-79
2021/12/01 16:51:21;;;;;;;;;;;;;;;;;;5090425;28;19916;-92
2021/12/01 16:53:48;;;;;;;;;;;;;;;;;;5090569;28;19916;-84
2021/12/01 16:56:14;;;;;;;;;;;;;;;;;;5090473;28;20434;-91
2021/12/01 16:58:39;;;;;;;;;;;;;;;;;;5090399;28;19999;-89
2021/12/01 17:01:06;;;;;;;;;;;;;;;;;;5090470;28;19932;-85
2021/12/01 17:03:39;;;;;;;;;;;;;;;;;;5076015;28;19947;-85
2021/12/01 17:06:09;;;;;;;;;;;;;;;;;;5074131;28;19927;-85
2021/12/01 17:11:06;;;;;;;;;;;;;;;;;;5075143;28;19928;-83
2021/12/01 17:13:34;;;;;;;;;;;;;;;;;;5071655;28;19923;-77
2021/12/01 17:16:00;;;;;;;;;;;;;;;;;;5069771;28;20265;-81
2021/12/01 17:18:26;;;;;;;;;;;;;;;;;;5071280;28;19947;-79
2021/12/01 17:20:55;;;;;;;;;;;;;;;;;;5073822;28;20426;-79
2021/12/01 17:23:21;;;;;;;;;;;;;;;;;;5074532;28;19982;-81
2021/12/01 17:25:46;;;;;;;;;;;;;;;;;;5073960;28;19960;-85
2021/12/01 17:28:13;;;;;;;;;;;;;;;;;;5076103;28;19917;-84
2021/12/01 17:30:49;;;;;;;;;;;;;;;;;;5070949;28;19925;-82
2021/12/01 17:33:15;;;;;;;;;;;;;;;;;;5071186;28;19925;-76
2021/12/01 17:35:41;;;;;;;;;;;;;;;;;;5074177;28;19930;-87
2021/12/01 17:38:10;;;;;;;;;;;;;;;;;;5072516;28;20421;-78
2021/12/01 17:40:35;;;;;;;;;;;;;;;;;;5070018;28;19929;-84
2021/12/01 17:43:01;;;;;;;;;;;;;;;;;;5064686;28;20272;-87
2021/12/01 17:45:28;;;;;;;;;;;;;;;;;;5068790;28;19974;-87
2021/12/01 17:47:54;;;;;;;;;;;;;;;;;;5055903;28;20265;-85
2021/12/01 17:50:19;;;;;;;;;;;;;;;;;;5057538;28;19951;-80
2021/12/01 17:52:46;;;;;;;;;;;;;;;;;;5059522;28;19921;-74
2021/12/01 17:55:12;;;;;;;;;;;;;;;;;;5060818;28;19928;-77
2021/12/01 17:57:38;;;;;;;;;;;;;;;;;;5059823;28;20012;-77
2021/12/01 18:00:04;;;;;;;;;;;;;;;;;;5059402;28;20024;-79
2021/12/01 18:02:33;;;;;;;;;;;;;;;;;;5061803;28;19978;-76
2021/12/01 18:04:59;;;;;;;;;;;;;;;;;;5058797;28;20450;-76
2021/12/01 18:07:25;;;;;;;;;;;;;;;;;;5058806;28;20459;-75
2021/12/01 18:09:50;;;;;;;;;;;;;;;;;;5060252;28;19920;-88
2021/12/01 18:12:15;;;;;;;;;;;;;;;;;;5062391;28;19921;-77
2021/12/01 18:14:41;;;;;;;;;;;;;;;;;;5062000;28;19920;-79
2021/12/01 18:17:06;;;;;;;;;;;;;;;;;;5063643;28;20001;-91
2021/12/01 18:19:32;;;;;;;;;;;;;;;;;;5060925;28;19943;-84
2021/12/01 18:21:57;;;;;;;;;;;;;;;;;;5068013;28;19952;-79
2021/12/01 18:24:23;;;;;;;;;;;;;;;;;;5061805;28;20408;-77
2021/12/01 18:26:48;;;;;;;;;;;;;;;;;;5056993;28;20451;-79
2021/12/01 18:29:14;;;;;;;;;;;;;;;;;;5054815;28;19929;-79
2021/12/01 18:31:41;;;;;;;;;;;;;;;;;;5073127;28;19971;-76
2021/12/01 18:34:07;;;;;;;;;;;;;;;;;;5076389;28;19927;-90
2021/12/01 18:36:32;;;;;;;;;;;;;;;;;;5076328;28;19927;-82
2021/12/01 18:38:59;;;;;;;;;;;;;;;;;;5080162;28;20003;-85
2021/12/01 18:41:25;;;;;;;;;;;;;;;;;;5069005;28;19928;-80
2021/12/01 18:43:50;;;;;;;;;;;;;;;;;;5079646;28;19925;-87
2021/12/01 18:46:16;;;;;;;;;;;;;;;;;;5080631;28;20018;-88
2021/12/01 18:48:42;;;;;;;;;;;;;;;;;;5078867;28;19920;-75
2021/12/01 18:51:10;;;;;;;;;;;;;;;;;;5084906;28;20849;-80
2021/12/01 18:53:37;;;;;;;;;;;;;;;;;;5078474;28;19927;-87
2021/12/01 18:56:03;;;;;;;;;;;;;;;;;;5076661;28;19929;-88
2021/12/01 18:58:29;;;;;;;;;;;;;;;;;;5074636;28;19927;-87
2021/12/01 19:00:54;;;;;;;;;;;;;;;;;;5078404;28;20377;-89
2021/12/01 19:03:19;;;;;;;;;;;;;;;;;;5078576;28;19943;-78
2021/12/01 19:05:45;;;;;;;;;;;;;;;;;;5085146;28;19974;-90
2021/12/01 19:08:11;;;;;;;;;;;;;;;;;;5081672;28;19920;-80
2021/12/01 19:10:37;;;;;;;;;;;;;;;;;;5077617;28;19950;-75
2021/12/01 19:13:03;;;;;;;;;;;;;;;;;;5074410;28;19924;-76
2021/12/01 19:15:29;;;;;;;;;;;;;;;;;;5079019;28;19940;-74
2021/12/01 19:17:55;;;;;;;;;;;;;;;;;;5073582;28;19925;-76
2021/12/01 19:20:21;;;;;;;;;;;;;;;;;;5079105;28;19956;-73
2021/12/01 19:22:48;;;;;;;;;;;;;;;;;;5076937;28;19927;-74
2021/12/01 19:25:15;;;;;;;;;;;;;;;;;;5079645;28;19924;-77
2021/12/01 19:27:41;;;;;;;;;;;;;;;;;;5078573;28;20046;-76
2021/12/01 19:30:08;;;;;;;;;;;;;;;;;;5079299;28;20015;-76
2021/12/01 19:32:34;;;;;;;;;;;;;;;;;;5075676;28;19997;-77
2021/12/01 19:34:59;;;;;;;;;;;;;;;;;;5073889;28;19928;-77
2021/12/01 19:37:25;;;;;;;;;;;;;;;;;;5072803;28;19924;-82
2021/12/01 19:39:51;;;;;;;;;;;;;;;;;;5073364;28;20017;-88
2021/12/01 19:42:18;;;;;;;;;;;;;;;;;;5074566;28;19928;-85
2021/12/01 19:44:44;;;;;;;;;;;;;;;;;;5077541;28;20023;-80
2021/12/01 19:47:10;;;;;;;;;;;;;;;;;;5074331;28;20021;-81
2021/12/01 19:49:41;;;;;;;;;;;;;;;;;;5072962;28;20350;-78
2021/12/01 19:52:06;;;;;;;;;;;;;;;;;;5081375;28;20287;-84
2021/12/01 19:54:32;;;;;;;;;;;;;;;;;;5084492;28;19923;-77
2021/12/01 19:56:58;;;;;;;;;;;;;;;;;;5078237;28;19932;-86
2021/12/01 19:59:24;;;;;;;;;;;;;;;;;;5074418;28;19986;-83
2021/12/01 20:01:50;;;;;;;;;;;;;;;;;;5075736;28;19926;-77
2021/12/01 20:04:18;;;;;;;;;;;;;;;;;;5074732;28;19928;-79
2021/12/01 20:06:47;;;;;;;;;;;;;;;;;;5063232;28;19931;-87
2021/12/01 20:09:13;;;;;;;;;;;;;;;;;;5074270;28;19924;-91
2021/12/01 20:11:39;;;;;;;;;;;;;;;;;;5076252;28;19939;-82
2021/12/01 20:14:05;;;;;;;;;;;;;;;;;;5080050;28;19916;-81
2021/12/01 20:16:30;;;;;;;;;;;;;;;;;;5082050;28;19966;-85
2021/12/01 20:18:57;;;;;;;;;;;;;;;;;;5074345;28;19917;-88
2021/12/01 20:21:23;;;;;;;;;;;;;;;;;;5078474;28;19936;-87
2021/12/01 20:23:54;;;;;;;;;;;;;;;;;;5087618;28;19927;-83
2021/12/01 20:26:20;;;;;;;;;;;;;;;;;;5093177;28;19939;-82
2021/12/01 20:28:46;;;;;;;;;;;;;;;;;;5077262;28;19916;-81
2021/12/01 20:31:12;;;;;;;;;;;;;;;;;;5091028;28;19954;-82
2021/12/01 20:33:38;;;;;;;;;;;;;;;;;;5083624;28;19982;-81
2021/12/01 20:36:05;;;;;;;;;;;;;;;;;;5059293;28;19924;-76
2021/12/01 20:38:32;;;;;;;;;;;;;;;;;;5076014;28;19990;-75
2021/12/01 20:40:58;;;;;;;;;;;;;;;;;;5077954;28;19970;-76
2021/12/01 20:43:23;;;;;;;;;;;;;;;;;;5079692;28;19924;-84
2021/12/01 21:01:30;;;;;;;;;;;;;;;;;;5078354;28;19924;-85
2021/12/01 21:04:22;;;;;;;;;;;;;;;;;;5077179;28;19921;-87
2021/12/01 21:06:48;;;;;;;;;;;;;;;;;;5074950;28;19936;-75
2021/12/01 21:09:26;;;;;;;;;;;;;;;;;;5074955;28;20020;-78
2021/12/01 21:11:55;;;;;;;;;;;;;;;;;;5084016;28;20066;-85
2021/12/01 21:14:21;;;;;;;;;;;;;;;;;;5090716;28;19924;-86
2021/12/01 21:16:47;;;;;;;;;;;;;;;;;;5093697;28;19916;-79
2021/12/01 21:19:13;;;;;;;;;;;;;;;;;;5087550;28;19921;-84
2021/12/01 21:21:42;;;;;;;;;;;;;;;;;;5096678;28;20015;-87
2021/12/01 21:24:10;;;;;;;;;;;;;;;;;;5077947;28;19924;-87
2021/12/01 21:26:36;;;;;;;;;;;;;;;;;;5077980;28;19995;-86
2021/12/01 21:29:04;;;;;;;;;;;;;;;;;;5076214;28;20268;-84
2021/12/01 21:31:30;;;;;;;;;;;;;;;;;;5075862;28;19920;-85
2021/12/01 21:33:56;;;;;;;;;;;;;;;;;;5058156;28;19924;-81
2021/12/01 21:36:23;;;;;;;;;;;;;;;;;;5076088;28;19921;-85
2021/12/01 21:38:48;;;;;;;;;;;;;;;;;;5058028;28;20412;-79
2021/12/01 21:41:17;;;;;;;;;;;;;;;;;;5075983;28;19970;-84
2021/12/01 21:43:43;;;;;;;;;;;;;;;;;;5075919;28;20019;-84
2021/12/01 21:46:09;;;;;;;;;;;;;;;;;;5057902;28;19923;-84
2021/12/01 21:48:34;;;;;;;;;;;;;;;;;;5057813;28;20387;-87
2021/12/01 21:51:03;;;;;;;;;;;;;;;;;;5066412;28;20329;-84
2021/12/01 21:53:28;;;;;;;;;;;;;;;;;;5096052;28;20326;-83
2021/12/01 21:55:55;;;;;;;;;;;;;;;;;;5095947;28;20011;-84
2021/12/01 21:58:21;;;;;;;;;;;;;;;;;;5095980;28;20418;-85
2021/12/01 22:00:47;;;;;;;;;;;;;;;;;;5095871;28;19916;-84
2021/12/01 22:03:12;;;;;;;;;;;;;;;;;;5095889;28;19962;-86
2021/12/01 22:05:39;;;;;;;;;;;;;;;;;;5095864;28;19924;-85
2021/12/01 22:08:05;;;;;;;;;;;;;;;;;;5095789;28;20018;-87